Private Wetterstation Wechselburg
Wetterdaten: Dienstag, 15.12.2020
Datum Zeit Temp. +2m Bodentemp. Temp.+5cm Temp. Wind Windchill X Diff Temp. Feuchte +2m Feuchte +5cm Luftdruck Regen Wind Richtung Richtung Sonnenschein Taupunkt Windchill Windben
15.12.2020 00:00 0,7 C 6,1 C 0,2 C 0,6 C 0,3 C 0,0 C 87 % 93 % 1016,2 hPa 0,0 l/m 0,8 km/h (0 Bft) O-SO 112 0 min -1,2 C 0,3 C 0,0 km/h (0 Bft)
15.12.2020 00:05 0,7 C 6,1 C 0,2 C 0,6 C 0,4 C 0,0 C 87 % 93 % 1016,2 hPa 0,0 l/m 1,1 km/h (1 Bft) W-SW 247 0 min -1,2 C 0,4 C 3,9 km/h (1 Bft)
15.12.2020 00:10 0,7 C 6,1 C 0,2 C 0,6 C 0,4 C 0,0 C 87 % 93 % 1016,2 hPa 0,0 l/m 1,0 km/h (0 Bft) W-SW 247 0 min -1,2 C 0,4 C 0,0 km/h (0 Bft)
15.12.2020 00:15 0,7 C 6,1 C 0,3 C 0,6 C 0,3 C 0,0 C 87 % 93 % 1016,2 hPa 0,0 l/m 0,6 km/h (0 Bft) W-SW 247 0 min -1,2 C 0,3 C 2,3 km/h (1 Bft)
15.12.2020 00:20 0,7 C 6,0 C 0,4 C 0,6 C 0,5 C 0,0 C 88 % 93 % 1016,2 hPa 0,0 l/m 0,5 km/h (0 Bft) W-SW 247 0 min -1,1 C 0,5 C 0,0 km/h (0 Bft)
15.12.2020 00:25 0,7 C 6,0 C 0,5 C 0,7 C 0,6 C 0,0 C 88 % 93 % 1016,2 hPa 0,0 l/m 0,5 km/h (0 Bft) W-SW 247 0 min -1,1 C 0,6 C 0,0 km/h (0 Bft)
15.12.2020 00:30 0,7 C 6,0 C 0,4 C 0,7 C 0,6 C 0,0 C 88 % 93 % 1015,8 hPa 0,0 l/m 0,3 km/h (0 Bft) W-SW 247 0 min -1,1 C 0,6 C 0,0 km/h (0 Bft)
15.12.2020 00:35 0,7 C 6,0 C 0,5 C 0,7 C 0,7 C 0,0 C 88 % 93 % 1015,8 hPa 0,0 l/m 0,0 km/h (0 Bft) W-SW 247 0 min -1,1 C 0,7 C 0,0 km/h (0 Bft)
15.12.2020 00:40 0,5 C 6,0 C 0,5 C 0,8 C 0,8 C 0,3 C 88 % 93 % 1015,8 hPa 0,0 l/m 0,0 km/h (0 Bft) W-SW 247 0 min -1,3 C 0,8 C 0,0 km/h (0 Bft)
15.12.2020 00:45 0,6 C 6,0 C 0,6 C 0,9 C 0,9 C 0,3 C 88 % 93 % 1015,8 hPa 0,0 l/m 0,0 km/h (0 Bft) W-SW 247 0 min -1,2 C 0,9 C 0,0 km/h (0 Bft)
15.12.2020 00:50 0,7 C 6,0 C 0,6 C 0,9 C 0,9 C 0,2 C 88 % 93 % 1015,8 hPa 0,0 l/m 0,0 km/h (0 Bft) W-SW 247 0 min -1,1 C 0,9 C 0,0 km/h (0 Bft)
15.12.2020 00:55 0,6 C 6,0 C 0,7 C 1,0 C 1,0 C 0,4 C 88 % 93 % 1015,8 hPa 0,0 l/m 0,0 km/h (0 Bft) W-SW 247 0 min -1,2 C 1,0 C 0,0 km/h (0 Bft)
15.12.2020 01:00 0,7 C 6,0 C 0,7 C 1,1 C 1,1 C 0,4 C 88 % 93 % 1015,8 hPa 0,0 l/m 0,0 km/h (0 Bft) W-SW 247 0 min -1,1 C 1,1 C 0,0 km/h (0 Bft)
15.12.2020 01:05 0,7 C 6,0 C 0,7 C 1,1 C 1,1 C 0,4 C 88 % 93 % 1015,8 hPa 0,0 l/m 0,0 km/h (0 Bft) W-SW 247 0 min -1,1 C 1,1 C 0,0 km/h (0 Bft)
15.12.2020 01:10 0,7 C 6,0 C 0,7 C 1,1 C 1,1 C 0,4 C 88 % 93 % 1015,4 hPa 0,0 l/m 0,0 km/h (0 Bft) W-SW 247 0 min -1,1 C 1,1 C 0,0 km/h (0 Bft)
15.12.2020 01:15 0,7 C 6,0 C 0,8 C 1,2 C 1,2 C 0,5 C 88 % 93 % 1015,4 hPa 0,0 l/m 0,0 km/h (0 Bft) W-SW 247 0 min -1,1 C 1,2 C 0,0 km/h (0 Bft)
15.12.2020 01:20 0,6 C 6,0 C 0,9 C 1,4 C 1,4 C 0,8 C 88 % 93 % 1015,4 hPa 0,0 l/m 0,0 km/h (0 Bft) W-SW 247 0 min -1,2 C 1,4 C 0,0 km/h (0 Bft)
15.12.2020 01:25 0,7 C 6,0 C 0,9 C 1,4 C 1,4 C 0,7 C 88 % 93 % 1015,4 hPa 0,0 l/m 0,0 km/h (0 Bft) W-SW 247 0 min -1,1 C 1,4 C 0,0 km/h (0 Bft)
15.12.2020 01:30 0,7 C 6,0 C 0,9 C 1,5 C 1,5 C 0,8 C 88 % 93 % 1015,2 hPa 0,0 l/m 0,0 km/h (0 Bft) W-SW 247 0 min -1,1 C 1,5 C 0,0 km/h (0 Bft)
15.12.2020 01:35 0,7 C 6,0 C 0,9 C 1,5 C 1,5 C 0,8 C 88 % 93 % 1015,2 hPa 0,0 l/m 0,0 km/h (0 Bft) W-SW 247 0 min -1,1 C 1,5 C 0,0 km/h (0 Bft)
15.12.2020 01:40 0,7 C 6,0 C 0,9 C 1,4 C 1,4 C 0,7 C 88 % 93 % 1015,2 hPa 0,0 l/m 0,0 km/h (0 Bft) W-SW 247 0 min -1,1 C 1,4 C 0,0 km/h (0 Bft)
15.12.2020 01:45 0,7 C 6,0 C 0,8 C 1,2 C 1,2 C 0,5 C 88 % 93 % 1015,2 hPa 0,0 l/m 0,0 km/h (0 Bft) W-SW 247 0 min -1,1 C 1,2 C 0,0 km/h (0 Bft)
15.12.2020 01:50 0,7 C 6,0 C 0,7 C 1,1 C 1,1 C 0,4 C 88 % 93 % 1015,6 hPa 0,0 l/m 0,0 km/h (0 Bft) W-SW 247 0 min -1,1 C 1,1 C 0,0 km/h (0 Bft)
15.12.2020 01:55 0,7 C 6,0 C 0,8 C 1,2 C 1,2 C 0,5 C 88 % 93 % 1015,6 hPa 0,0 l/m 0,0 km/h (0 Bft) W-SW 247 0 min -1,1 C 1,2 C 0,0 km/h (0 Bft)
15.12.2020 02:00 0,6 C 6,0 C 0,9 C 1,2 C 1,2 C 0,6 C 88 % 93 % 1015,6 hPa 0,0 l/m 0,0 km/h (0 Bft) W-SW 247 0 min -1,2 C 1,2 C 0,0 km/h (0 Bft)
15.12.2020 02:05 0,5 C 6,0 C 0,9 C 1,3 C 1,3 C 0,8 C 88 % 93 % 1015,6 hPa 0,0 l/m 0,0 km/h (0 Bft) W-SW 247 0 min -1,3 C 1,3 C 0,0 km/h (0 Bft)
15.12.2020 02:10 0,5 C 6,0 C 1,0 C 1,4 C 1,4 C 0,9 C 88 % 93 % 1015,6 hPa 0,0 l/m 0,0 km/h (0 Bft) W-SW 247 0 min -1,3 C 1,4 C 0,0 km/h (0 Bft)
15.12.2020 02:15 0,7 C 6,0 C 1,0 C 1,5 C 1,5 C 0,8 C 88 % 93 % 1015,6 hPa 0,0 l/m 0,0 km/h (0 Bft) W-SW 247 0 min -1,1 C 1,5 C 0,0 km/h (0 Bft)
15.12.2020 02:20 0,7 C 6,0 C 1,0 C 1,5 C 1,5 C 0,8 C 88 % 93 % 1015,6 hPa 0,0 l/m 0,0 km/h (0 Bft) W-SW 247 0 min -1,1 C 1,5 C 0,0 km/h (0 Bft)
15.12.2020 02:25 0,7 C 6,0 C 1,0 C 1,7 C 1,7 C 1,0 C 88 % 93 % 1015,6 hPa 0,0 l/m 0,3 km/h (0 Bft) W-SW 247 0 min -1,1 C 1,7 C 0,0 km/h (0 Bft)
15.12.2020 02:30 0,7 C 6,0 C 1,1 C 1,9 C 1,9 C 1,2 C 88 % 93 % 1015,4 hPa 0,0 l/m 0,3 km/h (0 Bft) W-SW 247 0 min -1,1 C 1,9 C 0,0 km/h (0 Bft)
15.12.2020 02:35 0,8 C 6,0 C 1,2 C 2,1 C 2,1 C 1,3 C 88 % 93 % 1015,4 hPa 0,0 l/m 0,0 km/h (0 Bft) W-SW 247 0 min -1,0 C 2,1 C 0,0 km/h (0 Bft)
15.12.2020 02:40 0,8 C 5,9 C 1,3 C 2,3 C 2,3 C 1,5 C 88 % 93 % 1015,4 hPa 0,0 l/m 0,0 km/h (0 Bft) W-SW 247 0 min -1,0 C 2,3 C 1,6 km/h (1 Bft)
15.12.2020 02:45 0,9 C 5,9 C 1,4 C 2,5 C 2,5 C 1,6 C 88 % 93 % 1015,4 hPa 0,0 l/m 0,2 km/h (0 Bft) W-SW 247 0 min -0,9 C 2,5 C 0,0 km/h (0 Bft)
15.12.2020 02:50 1,1 C 5,9 C 1,4 C 2,5 C 2,5 C 1,4 C 88 % 93 % 1015,2 hPa 0,0 l/m 0,2 km/h (0 Bft) W-SW 247 0 min -0,7 C 2,5 C 0,0 km/h (0 Bft)
15.12.2020 02:55 1,1 C 5,9 C 1,5 C 2,7 C 2,7 C 1,6 C 88 % 93 % 1015,2 hPa 0,0 l/m 0,0 km/h (0 Bft) W-SW 247 0 min -0,7 C 2,7 C 0,0 km/h (0 Bft)
15.12.2020 03:00 1,1 C 5,9 C 1,6 C 2,8 C 2,8 C 1,7 C 88 % 93 % 1015,2 hPa 0,0 l/m 0,0 km/h (0 Bft) W-SW 247 0 min -0,7 C 2,8 C 0,0 km/h (0 Bft)
15.12.2020 03:05 1,2 C 5,8 C 1,7 C 3,0 C 3,0 C 1,8 C 88 % 93 % 1015,2 hPa 0,0 l/m 0,0 km/h (0 Bft) W-SW 247 0 min -0,6 C 3,0 C 0,0 km/h (0 Bft)
15.12.2020 03:10 1,5 C 5,8 C 1,9 C 3,2 C 3,2 C 1,7 C 88 % 93 % 1015,2 hPa 0,0 l/m 0,2 km/h (0 Bft) S 180 0 min -0,3 C 3,2 C 0,0 km/h (0 Bft)
15.12.2020 03:15 1,6 C 5,7 C 2,1 C 3,5 C 3,5 C 1,9 C 88 % 93 % 1015,2 hPa 0,0 l/m 0,2 km/h (0 Bft) S 180 0 min -0,2 C 3,5 C 0,0 km/h (0 Bft)
15.12.2020 03:20 1,6 C 5,7 C 2,2 C 3,6 C 3,6 C 2,0 C 88 % 93 % 1015,2 hPa 0,0 l/m 0,2 km/h (0 Bft) S-SO 157 0 min -0,2 C 3,6 C 0,0 km/h (0 Bft)
15.12.2020 03:25 1,8 C 5,7 C 2,4 C 3,8 C 3,8 C 2,0 C 88 % 93 % 1015,2 hPa 0,0 l/m 0,2 km/h (0 Bft) SO 135 0 min 0,0 C 3,8 C 0,0 km/h (0 Bft)
15.12.2020 03:30 2,0 C 5,7 C 2,4 C 3,8 C 3,8 C 1,8 C 88 % 93 % 1014,9 hPa 0,0 l/m 0,0 km/h (0 Bft) SO 135 0 min 0,2 C 3,8 C 0,0 km/h (0 Bft)
15.12.2020 03:35 2,1 C 5,7 C 2,5 C 3,9 C 3,9 C 1,8 C 88 % 93 % 1014,9 hPa 0,0 l/m 0,0 km/h (0 Bft) SO 135 0 min 0,3 C 3,9 C 0,0 km/h (0 Bft)
15.12.2020 03:40 2,3 C 5,6 C 2,7 C 4,1 C 4,1 C 1,8 C 88 % 93 % 1014,9 hPa 0,0 l/m 0,0 km/h (0 Bft) O-SO 112 0 min 0,5 C 4,1 C 1,6 km/h (1 Bft)
15.12.2020 03:45 2,5 C 5,7 C 2,8 C 4,1 C 4,1 C 1,6 C 88 % 92 % 1014,9 hPa 0,0 l/m 0,0 km/h (0 Bft) SO 135 0 min 0,7 C 4,1 C 0,0 km/h (0 Bft)
15.12.2020 03:50 2,5 C 5,7 C 2,7 C 4,0 C 4,0 C 1,5 C 88 % 92 % 1014,6 hPa 0,0 l/m 0,0 km/h (0 Bft) SO 135 0 min 0,7 C 4,0 C 0,0 km/h (0 Bft)
15.12.2020 03:55 2,7 C 5,6 C 2,7 C 4,0 C 4,0 C 1,3 C 88 % 92 % 1014,6 hPa 0,0 l/m 0,2 km/h (0 Bft) W-SW 247 0 min 0,9 C 4,0 C 0,0 km/h (0 Bft)
15.12.2020 04:00 2,8 C 5,6 C 2,7 C 3,9 C 3,9 C 1,1 C 88 % 92 % 1014,6 hPa 0,0 l/m 0,2 km/h (0 Bft) O 90 0 min 1,0 C 3,9 C 2,4 km/h (1 Bft)
15.12.2020 04:05 3,0 C 5,6 C 2,7 C 3,9 C 3,9 C 0,9 C 88 % 92 % 1014,6 hPa 0,0 l/m 0,2 km/h (0 Bft) O-NO 67 0 min 1,2 C 3,9 C 0,0 km/h (0 Bft)
15.12.2020 04:10 3,2 C 5,6 C 2,7 C 3,9 C 3,9 C 0,7 C 88 % 92 % 1015,1 hPa 0,0 l/m 0,2 km/h (0 Bft) O-NO 67 0 min 1,4 C 3,9 C 2,3 km/h (1 Bft)
15.12.2020 04:15 3,4 C 5,6 C 3,0 C 3,8 C 3,8 C 0,4 C 88 % 91 % 1015,1 hPa 0,0 l/m 0,2 km/h (0 Bft) SO 135 0 min 1,6 C 3,8 C 1,6 km/h (1 Bft)
15.12.2020 04:20 3,5 C 5,6 C 2,9 C 3,8 C 3,8 C 0,3 C 88 % 91 % 1015,1 hPa 0,0 l/m 0,3 km/h (0 Bft) S-SO 157 0 min 1,7 C 3,8 C 0,0 km/h (0 Bft)
15.12.2020 04:25 3,7 C 5,6 C 2,7 C 3,7 C 3,6 C 0,0 C 88 % 91 % 1015,1 hPa 0,0 l/m 0,2 km/h (0 Bft) S-SO 157 0 min 1,9 C 3,6 C 0,0 km/h (0 Bft)
15.12.2020 04:30 3,6 C 5,6 C 2,6 C 3,6 C 3,6 C 0,0 C 87 % 91 % 1015,0 hPa 0,0 l/m 0,0 km/h (0 Bft) S-SO 157 0 min 1,6 C 3,6 C 0,0 km/h (0 Bft)
15.12.2020 04:35 3,8 C 5,6 C 2,5 C 3,7 C 3,5 C 0,0 C 87 % 91 % 1015,0 hPa 0,0 l/m 0,2 km/h (0 Bft) S 180 0 min 1,8 C 3,5 C 0,0 km/h (0 Bft)
15.12.2020 04:40 3,8 C 5,6 C 2,5 C 3,7 C 3,6 C 0,0 C 87 % 91 % 1015,0 hPa 0,0 l/m 0,8 km/h (0 Bft) SW 225 0 min 1,8 C 3,6 C 2,9 km/h (1 Bft)
15.12.2020 04:45 4,0 C 5,6 C 2,6 C 3,9 C 3,6 C 0,0 C 87 % 91 % 1015,0 hPa 0,0 l/m 1,1 km/h (1 Bft) SW 225 0 min 2,0 C 3,6 C 5,5 km/h (1 Bft)
15.12.2020 04:50 4,1 C 5,6 C 2,5 C 3,9 C 3,6 C 0,0 C 87 % 91 % 1014,8 hPa 0,0 l/m 1,1 km/h (1 Bft) N-NW 337 0 min 2,1 C 3,6 C 1,6 km/h (1 Bft)
15.12.2020 04:55 4,3 C 5,6 C 2,7 C 4,1 C 3,7 C 0,0 C 86 % 91 % 1014,8 hPa 0,0 l/m 1,0 km/h (0 Bft) S 180 0 min 2,2 C 3,7 C 3,1 km/h (1 Bft)
15.12.2020 05:00 4,4 C 5,6 C 2,8 C 4,2 C 3,8 C 0,0 C 86 % 91 % 1014,8 hPa 0,0 l/m 1,1 km/h (1 Bft) O-NO 67 0 min 2,3 C 3,8 C 0,0 km/h (0 Bft)
15.12.2020 05:05 4,4 C 5,6 C 2,9 C 4,2 C 3,9 C 0,0 C 86 % 91 % 1014,8 hPa 0,0 l/m 0,6 km/h (0 Bft) S-SW 202 0 min 2,3 C 3,9 C 0,0 km/h (0 Bft)
15.12.2020 05:10 4,3 C 5,6 C 2,9 C 4,2 C 3,9 C 0,0 C 86 % 91 % 1014,8 hPa 0,0 l/m 0,2 km/h (0 Bft) W-SW 247 0 min 2,2 C 3,9 C 4,0 km/h (1 Bft)
15.12.2020 05:15 4,3 C 5,6 C 3,0 C 4,2 C 4,0 C 0,0 C 85 % 90 % 1014,8 hPa 0,0 l/m 0,2 km/h (0 Bft) W 270 0 min 2,0 C 4,0 C 0,0 km/h (0 Bft)
15.12.2020 05:20 4,3 C 5,6 C 3,0 C 4,2 C 4,0 C 0,0 C 85 % 90 % 1014,8 hPa 0,0 l/m 0,2 km/h (0 Bft) S-SO 157 0 min 2,0 C 4,0 C 0,0 km/h (0 Bft)
15.12.2020 05:25 4,3 C 5,6 C 3,0 C 4,2 C 4,0 C 0,0 C 85 % 90 % 1014,8 hPa 0,0 l/m 0,2 km/h (0 Bft) W 270 0 min 2,0 C 4,0 C 0,0 km/h (0 Bft)
15.12.2020 05:30 4,3 C 5,6 C 2,9 C 4,2 C 4,0 C 0,0 C 84 % 90 % 1015,1 hPa 0,0 l/m 0,2 km/h (0 Bft) W 270 0 min 1,8 C 4,0 C 0,0 km/h (0 Bft)
15.12.2020 05:35 4,3 C 5,6 C 2,8 C 4,1 C 3,7 C 0,0 C 84 % 90 % 1015,1 hPa 0,0 l/m 0,0 km/h (0 Bft) S-SW 202 0 min 1,8 C 3,7 C 0,0 km/h (0 Bft)
15.12.2020 05:40 4,3 C 5,6 C 2,8 C 4,1 C 3,7 C 0,0 C 84 % 90 % 1015,1 hPa 0,0 l/m 0,0 km/h (0 Bft) W 270 0 min 1,8 C 3,7 C 0,0 km/h (0 Bft)
15.12.2020 05:45 4,3 C 5,6 C 2,9 C 4,1 C 3,6 C 0,0 C 84 % 89 % 1015,1 hPa 0,0 l/m 0,2 km/h (0 Bft) NW 315 0 min 1,8 C 3,6 C 0,0 km/h (0 Bft)
15.12.2020 05:50 4,3 C 5,6 C 2,9 C 4,1 C 3,6 C 0,0 C 84 % 90 % 1015,0 hPa 0,0 l/m 0,3 km/h (0 Bft) NW 315 0 min 1,8 C 3,6 C 1,8 km/h (1 Bft)
15.12.2020 05:55 4,2 C 5,6 C 2,6 C 4,0 C 3,5 C 0,0 C 83 % 89 % 1015,0 hPa 0,0 l/m 0,2 km/h (0 Bft) NW 315 0 min 1,6 C 3,5 C 0,0 km/h (0 Bft)
15.12.2020 06:00 4,1 C 5,6 C 2,6 C 3,8 C 3,3 C 0,0 C 83 % 90 % 1015,0 hPa 0,0 l/m 0,3 km/h (0 Bft) W-SW 247 0 min 1,5 C 3,3 C 0,0 km/h (0 Bft)
15.12.2020 06:05 4,1 C 5,6 C 2,5 C 3,8 C 3,2 C 0,0 C 83 % 89 % 1015,0 hPa 0,0 l/m 0,2 km/h (0 Bft) O-NO 67 0 min 1,5 C 3,2 C 0,0 km/h (0 Bft)
15.12.2020 06:10 4,1 C 5,6 C 2,6 C 3,8 C 3,1 C 0,0 C 83 % 89 % 1015,1 hPa 0,0 l/m 0,2 km/h (0 Bft) SW 225 0 min 1,5 C 3,1 C 1,6 km/h (1 Bft)
15.12.2020 06:15 4,0 C 5,6 C 2,5 C 3,7 C 3,1 C 0,0 C 83 % 89 % 1015,1 hPa 0,0 l/m 0,2 km/h (0 Bft) NO 45 0 min 1,4 C 3,1 C 0,0 km/h (0 Bft)
15.12.2020 06:20 4,1 C 5,6 C 2,5 C 3,8 C 3,1 C 0,0 C 83 % 89 % 1015,1 hPa 0,0 l/m 0,2 km/h (0 Bft) O-NO 67 0 min 1,5 C 3,1 C 0,0 km/h (0 Bft)
15.12.2020 06:25 3,9 C 5,6 C 2,4 C 3,6 C 2,9 C 0,0 C 83 % 89 % 1015,1 hPa 0,0 l/m 0,0 km/h (0 Bft) SO 135 0 min 1,3 C 2,9 C 0,0 km/h (0 Bft)
15.12.2020 06:30 3,9 C 5,6 C 2,4 C 3,6 C 2,9 C 0,0 C 83 % 89 % 1015,6 hPa 0,0 l/m 0,0 km/h (0 Bft) O-SO 112 0 min 1,3 C 2,9 C 0,0 km/h (0 Bft)
15.12.2020 06:35 3,9 C 5,6 C 2,3 C 3,5 C 2,8 C 0,0 C 83 % 89 % 1015,6 hPa 0,0 l/m 0,2 km/h (0 Bft) O-SO 112 0 min 1,3 C 2,8 C 0,0 km/h (0 Bft)
15.12.2020 06:40 3,9 C 5,6 C 2,3 C 3,5 C 2,8 C 0,0 C 83 % 89 % 1015,6 hPa 0,0 l/m 0,2 km/h (0 Bft) O-SO 112 0 min 1,3 C 2,8 C 0,0 km/h (0 Bft)
15.12.2020 06:45 3,7 C 5,6 C 2,1 C 3,4 C 2,7 C 0,0 C 82 % 89 % 1015,6 hPa 0,0 l/m 0,0 km/h (0 Bft) O-SO 112 0 min 0,9 C 2,7 C 0,0 km/h (0 Bft)
15.12.2020 06:50 3,7 C 5,6 C 2,0 C 3,3 C 2,5 C 0,0 C 82 % 89 % 1014,9 hPa 0,0 l/m 0,0 km/h (0 Bft) O-SO 112 0 min 0,9 C 2,5 C 0,0 km/h (0 Bft)
15.12.2020 06:55 3,5 C 5,6 C 1,9 C 3,2 C 2,5 C 0,0 C 82 % 89 % 1014,9 hPa 0,0 l/m 0,0 km/h (0 Bft) O-SO 112 0 min 0,7 C 2,5 C 0,0 km/h (0 Bft)
15.12.2020 07:00 3,5 C 5,6 C 1,8 C 3,1 C 2,4 C 0,0 C 82 % 89 % 1014,9 hPa 0,0 l/m 0,0 km/h (0 Bft) O-SO 112 0 min 0,7 C 2,4 C 0,0 km/h (0 Bft)
15.12.2020 07:05 3,6 C 5,6 C 1,8 C 3,2 C 2,5 C 0,0 C 82 % 90 % 1014,9 hPa 0,0 l/m 0,2 km/h (0 Bft) S-SW 202 0 min 0,8 C 2,5 C 0,0 km/h (0 Bft)
15.12.2020 07:10 3,7 C 5,6 C 1,9 C 3,3 C 2,6 C 0,0 C 83 % 90 % 1014,9 hPa 0,0 l/m 0,2 km/h (0 Bft) SW 225 0 min 1,1 C 2,6 C 0,0 km/h (0 Bft)
15.12.2020 07:15 3,6 C 5,6 C 1,9 C 3,3 C 2,7 C 0,0 C 82 % 90 % 1014,9 hPa 0,0 l/m 0,2 km/h (0 Bft) S-SO 157 0 min 0,8 C 2,7 C 2,1 km/h (1 Bft)
15.12.2020 07:20 3,6 C 5,6 C 1,9 C 3,4 C 2,9 C 0,0 C 82 % 90 % 1014,9 hPa 0,0 l/m 0,2 km/h (0 Bft) S 180 0 min 0,8 C 2,9 C 0,0 km/h (0 Bft)
15.12.2020 07:25 3,7 C 5,6 C 2,2 C 3,5 C 3,2 C 0,0 C 83 % 90 % 1014,9 hPa 0,0 l/m 0,5 km/h (0 Bft) SO 135 0 min 1,1 C 3,2 C 0,0 km/h (0 Bft)
15.12.2020 07:30 3,8 C 5,6 C 2,4 C 3,7 C 3,5 C 0,0 C 83 % 90 % 1014,9 hPa 0,0 l/m 0,6 km/h (0 Bft) NW 315 0 min 1,2 C 3,5 C 0,0 km/h (0 Bft)
15.12.2020 07:35 4,0 C 5,6 C 2,7 C 3,9 C 3,8 C 0,0 C 83 % 90 % 1014,9 hPa 0,0 l/m 0,5 km/h (0 Bft) O-SO 112 0 min 1,4 C 3,8 C 1,8 km/h (1 Bft)
15.12.2020 07:40 4,0 C 5,6 C 2,9 C 4,0 C 3,9 C 0,0 C 83 % 90 % 1014,9 hPa 0,0 l/m 0,3 km/h (0 Bft) O 90 0 min 1,4 C 3,9 C 3,1 km/h (1 Bft)
15.12.2020 07:45 4,1 C 5,6 C 3,0 C 4,1 C 4,0 C 0,0 C 83 % 89 % 1014,9 hPa 0,0 l/m 0,8 km/h (0 Bft) S-SO 157 0 min 1,5 C 4,0 C 4,2 km/h (1 Bft)
15.12.2020 07:50 4,2 C 5,6 C 3,0 C 4,2 C 4,1 C 0,0 C 83 % 89 % 1015,2 hPa 0,0 l/m 0,8 km/h (0 Bft) O-SO 112 0 min 1,6 C 4,1 C 0,0 km/h (0 Bft)
15.12.2020 07:55 4,2 C 5,6 C 3,0 C 4,2 C 4,1 C 0,0 C 83 % 89 % 1015,2 hPa 0,0 l/m 1,3 km/h (1 Bft) S 180 0 min 1,6 C 4,1 C 0,0 km/h (0 Bft)
15.12.2020 08:00 4,2 C 5,6 C 3,0 C 4,1 C 4,0 C 0,0 C 83 % 89 % 1015,2 hPa 0,0 l/m 1,0 km/h (0 Bft) SO 135 0 min 1,6 C 4,0 C 0,0 km/h (0 Bft)
15.12.2020 08:05 4,3 C 5,6 C 3,1 C 4,2 C 4,0 C 0,0 C 82 % 89 % 1015,2 hPa 0,0 l/m 0,5 km/h (0 Bft) O 90 0 min 1,5 C 4,0 C 0,0 km/h (0 Bft)
15.12.2020 08:10 4,3 C 5,6 C 3,1 C 4,2 C 4,0 C 0,0 C 82 % 89 % 1014,9 hPa 0,0 l/m 1,0 km/h (0 Bft) S 180 0 min 1,5 C 4,0 C 4,7 km/h (1 Bft)
15.12.2020 08:15 4,3 C 5,6 C 3,2 C 4,2 C 4,1 C 0,0 C 82 % 89 % 1014,9 hPa 0,0 l/m 1,1 km/h (1 Bft) SO 135 0 min 1,5 C 4,1 C 7,1 km/h (2 Bft)
15.12.2020 08:20 4,3 C 5,6 C 3,2 C 4,2 C 4,1 C 0,0 C 82 % 89 % 1014,9 hPa 0,0 l/m 1,1 km/h (1 Bft) S 180 0 min 1,5 C 4,1 C 0,0 km/h (0 Bft)
15.12.2020 08:25 4,4 C 5,6 C 3,3 C 4,3 C 4,1 C 0,0 C 82 % 88 % 1014,9 hPa 0,0 l/m 1,1 km/h (1 Bft) O-NO 67 0 min 1,6 C 4,1 C 0,0 km/h (0 Bft)
15.12.2020 08:30 4,4 C 5,6 C 3,3 C 4,3 C 4,1 C 0,0 C 82 % 88 % 1014,7 hPa 0,0 l/m 1,4 km/h (1 Bft) S 180 0 min 1,6 C 4,1 C 2,9 km/h (1 Bft)
15.12.2020 08:35 4,5 C 5,6 C 3,3 C 4,4 C 4,2 C 0,0 C 82 % 88 % 1014,7 hPa 0,0 l/m 1,4 km/h (1 Bft) S 180 0 min 1,7 C 4,2 C 2,3 km/h (1 Bft)
15.12.2020 08:40 4,4 C 5,6 C 3,4 C 4,3 C 4,2 C 0,0 C 82 % 88 % 1014,7 hPa 0,0 l/m 1,0 km/h (0 Bft) S-SW 202 0 min 1,6 C 4,2 C 0,0 km/h (0 Bft)
15.12.2020 08:45 4,3 C 5,6 C 3,2 C 4,2 C 4,1 C 0,0 C 81 % 88 % 1014,7 hPa 0,0 l/m 0,2 km/h (0 Bft) S-SW 202 0 min 1,3 C 4,1 C 0,0 km/h (0 Bft)
15.12.2020 08:50 4,3 C 5,6 C 3,2 C 4,2 C 4,1 C 0,0 C 81 % 88 % 1014,9 hPa 0,0 l/m 0,0 km/h (0 Bft) S-SW 202 0 min 1,3 C 4,1 C 0,0 km/h (0 Bft)
15.12.2020 08:55 4,3 C 5,6 C 3,3 C 4,3 C 4,2 C 0,0 C 81 % 88 % 1014,9 hPa 0,0 l/m 0,0 km/h (0 Bft) SO 135 0 min 1,3 C 4,2 C 1,6 km/h (1 Bft)
15.12.2020 09:00 4,2 C 5,6 C 3,3 C 4,3 C 4,3 C 0,1 C 81 % 88 % 1014,9 hPa 0,0 l/m 0,0 km/h (0 Bft) SO 135 0 min 1,2 C 4,3 C 0,0 km/h (0 Bft)
15.12.2020 09:05 4,3 C 5,6 C 3,4 C 4,5 C 4,5 C 0,2 C 81 % 89 % 1014,9 hPa 0,0 l/m 0,3 km/h (0 Bft) S 180 0 min 1,3 C 4,5 C 1,8 km/h (1 Bft)
15.12.2020 09:10 4,3 C 5,6 C 3,5 C 4,7 C 4,7 C 0,4 C 82 % 89 % 1014,8 hPa 0,0 l/m 0,3 km/h (0 Bft) SW 225 0 min 1,5 C 4,7 C 0,0 km/h (0 Bft)
15.12.2020 09:15 4,5 C 5,6 C 3,6 C 5,0 C 5,0 C 0,5 C 82 % 89 % 1014,8 hPa 0,0 l/m 0,2 km/h (0 Bft) N-NW 337 0 min 1,7 C 5,0 C 0,0 km/h (0 Bft)
15.12.2020 09:20 4,4 C 5,6 C 3,7 C 5,1 C 5,1 C 0,7 C 82 % 89 % 1014,8 hPa 0,0 l/m 0,0 km/h (0 Bft) O 90 0 min 1,6 C 5,1 C 0,0 km/h (0 Bft)
15.12.2020 09:25 4,5 C 5,6 C 3,9 C 5,4 C 5,4 C 0,9 C 82 % 89 % 1014,8 hPa 0,0 l/m 0,0 km/h (0 Bft) S 180 0 min 1,7 C 5,4 C 0,0 km/h (0 Bft)
15.12.2020 09:30 4,6 C 5,6 C 4,2 C 5,7 C 5,7 C 1,1 C 82 % 88 % 1014,5 hPa 0,0 l/m 0,2 km/h (0 Bft) N 360 0 min 1,8 C 5,7 C 0,0 km/h (0 Bft)
15.12.2020 09:35 4,9 C 5,6 C 4,5 C 6,1 C 6,1 C 1,2 C 82 % 88 % 1014,5 hPa 0,0 l/m 0,8 km/h (0 Bft) SW 225 0 min 2,1 C 6,1 C 2,7 km/h (1 Bft)
15.12.2020 09:40 4,9 C 5,6 C 4,5 C 6,2 C 6,2 C 1,3 C 81 % 88 % 1014,5 hPa 0,0 l/m 1,4 km/h (1 Bft) W-SW 247 0 min 1,9 C 6,2 C 2,1 km/h (1 Bft)
15.12.2020 09:45 5,0 C 5,6 C 4,5 C 6,2 C 6,2 C 1,2 C 81 % 88 % 1014,5 hPa 0,0 l/m 0,8 km/h (0 Bft) W-SW 247 0 min 2,0 C 6,2 C 0,0 km/h (0 Bft)
15.12.2020 09:50 5,1 C 5,6 C 4,6 C 6,2 C 6,2 C 1,1 C 81 % 87 % 1015,0 hPa 0,0 l/m 0,0 km/h (0 Bft) O 90 0 min 2,1 C 6,2 C 0,0 km/h (0 Bft)
15.12.2020 09:55 5,1 C 5,5 C 4,7 C 6,3 C 6,3 C 1,2 C 81 % 87 % 1015,0 hPa 0,0 l/m 0,0 km/h (0 Bft) O-NO 67 0 min 2,1 C 6,3 C 0,0 km/h (0 Bft)
15.12.2020 10:00 5,2 C 5,5 C 4,9 C 6,4 C 6,4 C 1,2 C 81 % 87 % 1015,0 hPa 0,0 l/m 0,0 km/h (0 Bft) O-NO 67 0 min 2,2 C 6,4 C 0,0 km/h (0 Bft)
15.12.2020 10:05 5,3 C 5,5 C 5,1 C 6,7 C 6,7 C 1,4 C 81 % 86 % 1015,0 hPa 0,0 l/m 0,3 km/h (0 Bft) SW 225 0 min 2,3 C 6,7 C 2,1 km/h (1 Bft)
15.12.2020 10:10 5,5 C 5,5 C 5,2 C 6,8 C 6,8 C 1,3 C 81 % 86 % 1015,2 hPa 0,0 l/m 0,3 km/h (0 Bft) O-NO 67 0 min 2,5 C 6,8 C 0,0 km/h (0 Bft)
15.12.2020 10:15 5,7 C 5,5 C 5,3 C 6,9 C 6,9 C 1,2 C 80 % 86 % 1015,2 hPa 0,0 l/m 0,2 km/h (0 Bft) S-SO 157 0 min 2,5 C 6,9 C 0,0 km/h (0 Bft)
15.12.2020 10:20 5,7 C 5,5 C 5,4 C 7,0 C 7,0 C 1,3 C 80 % 86 % 1015,2 hPa 0,0 l/m 0,0 km/h (0 Bft) O-NO 67 0 min 2,5 C 7,0 C 2,1 km/h (1 Bft)
15.12.2020 10:25 5,9 C 5,5 C 5,6 C 7,2 C 7,2 C 1,3 C 80 % 85 % 1015,2 hPa 0,0 l/m 0,2 km/h (0 Bft) O-NO 67 0 min 2,7 C 7,2 C 0,0 km/h (0 Bft)
15.12.2020 10:30 6,0 C 5,5 C 5,7 C 7,3 C 7,3 C 1,3 C 80 % 85 % 1014,8 hPa 0,0 l/m 0,2 km/h (0 Bft) O-NO 67 0 min 2,8 C 7,3 C 0,0 km/h (0 Bft)
15.12.2020 10:35 6,1 C 5,5 C 5,9 C 7,6 C 7,6 C 1,5 C 79 % 84 % 1014,8 hPa 0,0 l/m 0,0 km/h (0 Bft) O-NO 67 0 min 2,7 C 7,6 C 0,0 km/h (0 Bft)
15.12.2020 10:40 6,3 C 5,5 C 6,1 C 7,8 C 7,8 C 1,5 C 79 % 85 % 1014,8 hPa 0,0 l/m 0,0 km/h (0 Bft) NO 45 0 min 2,9 C 7,8 C 0,0 km/h (0 Bft)
15.12.2020 10:45 6,5 C 5,5 C 6,3 C 8,1 C 8,1 C 1,6 C 79 % 84 % 1014,8 hPa 0,0 l/m 0,2 km/h (0 Bft) O-NO 67 0 min 3,1 C 8,1 C 0,0 km/h (0 Bft)
15.12.2020 10:50 6,6 C 5,5 C 6,5 C 8,4 C 8,4 C 1,8 C 79 % 84 % 1014,6 hPa 0,0 l/m 0,2 km/h (0 Bft) O-NO 67 0 min 3,2 C 8,4 C 0,0 km/h (0 Bft)
15.12.2020 10:55 6,8 C 5,5 C 6,7 C 8,5 C 8,5 C 1,7 C 78 % 83 % 1014,6 hPa 0,0 l/m 0,2 km/h (0 Bft) N-NO 22 0 min 3,2 C 8,5 C 0,0 km/h (0 Bft)
15.12.2020 11:00 6,9 C 5,5 C 6,7 C 8,7 C 8,7 C 1,8 C 78 % 83 % 1014,6 hPa 0,0 l/m 0,2 km/h (0 Bft) W-SW 247 0 min 3,3 C 8,7 C 2,1 km/h (1 Bft)
15.12.2020 11:05 7,1 C 5,5 C 6,8 C 8,7 C 8,7 C 1,6 C 78 % 83 % 1014,6 hPa 0,0 l/m 0,2 km/h (0 Bft) W-SW 247 0 min 3,5 C 8,7 C 0,0 km/h (0 Bft)
15.12.2020 11:10 7,1 C 5,5 C 6,8 C 8,7 C 8,7 C 1,6 C 78 % 83 % 1014,2 hPa 0,0 l/m 0,2 km/h (0 Bft) W-SW 247 0 min 3,5 C 8,7 C 0,0 km/h (0 Bft)
15.12.2020 11:15 7,3 C 5,6 C 6,8 C 9,1 C 9,1 C 1,8 C 77 % 83 % 1014,2 hPa 0,0 l/m 0,2 km/h (0 Bft) NO 45 0 min 3,5 C 9,1 C 0,0 km/h (0 Bft)
15.12.2020 11:20 7,3 C 5,6 C 7,0 C 9,2 C 9,2 C 1,9 C 77 % 83 % 1014,2 hPa 0,0 l/m 0,6 km/h (0 Bft) NO 45 0 min 3,5 C 9,2 C 0,0 km/h (0 Bft)
15.12.2020 11:25 7,5 C 5,6 C 7,3 C 9,4 C 9,4 C 1,9 C 77 % 83 % 1014,2 hPa 0,0 l/m 1,3 km/h (1 Bft) S 180 0 min 3,7 C 9,4 C 2,7 km/h (1 Bft)
15.12.2020 11:30 7,5 C 5,6 C 7,5 C 9,5 C 9,5 C 2,0 C 78 % 83 % 1014,3 hPa 0,0 l/m 1,3 km/h (1 Bft) S-SW 202 0 min 3,9 C 9,5 C 0,0 km/h (0 Bft)
15.12.2020 11:35 7,7 C 5,6 C 7,6 C 9,7 C 9,7 C 2,0 C 77 % 83 % 1014,3 hPa 0,0 l/m 1,1 km/h (1 Bft) SW 225 0 min 3,9 C 9,7 C 2,7 km/h (1 Bft)
15.12.2020 11:40 7,7 C 5,6 C 7,5 C 9,5 C 9,5 C 1,8 C 77 % 82 % 1014,3 hPa 0,0 l/m 1,3 km/h (1 Bft) SW 225 0 min 3,9 C 9,5 C 1,9 km/h (1 Bft)
15.12.2020 11:45 7,6 C 5,6 C 7,5 C 9,4 C 9,4 C 1,8 C 76 % 82 % 1014,3 hPa 0,0 l/m 1,1 km/h (1 Bft) S 180 0 min 3,6 C 9,4 C 2,7 km/h (1 Bft)
15.12.2020 11:50 7,7 C 5,6 C 7,6 C 9,5 C 9,5 C 1,8 C 76 % 81 % 1014,7 hPa 0,0 l/m 0,6 km/h (0 Bft) S-SO 157 0 min 3,7 C 9,5 C 3,9 km/h (1 Bft)
15.12.2020 11:55 7,9 C 5,6 C 7,7 C 9,7 C 9,7 C 1,8 C 76 % 80 % 1014,7 hPa 0,0 l/m 0,8 km/h (0 Bft) W-SW 247 0 min 3,9 C 9,7 C 7,2 km/h (2 Bft)
15.12.2020 12:00 7,9 C 5,6 C 7,5 C 9,5 C 9,5 C 1,6 C 76 % 80 % 1014,7 hPa 0,0 l/m 2,3 km/h (1 Bft) SW 225 0 min 3,9 C 9,5 C 3,5 km/h (1 Bft)
15.12.2020 12:05 7,9 C 5,6 C 7,3 C 9,1 C 9,1 C 1,2 C 75 % 79 % 1014,7 hPa 0,0 l/m 3,5 km/h (1 Bft) S-SW 202 0 min 3,7 C 9,1 C 2,9 km/h (1 Bft)
15.12.2020 12:10 7,7 C 5,6 C 7,2 C 9,3 C 9,3 C 1,6 C 74 % 79 % 1015,1 hPa 0,0 l/m 3,4 km/h (1 Bft) W-SW 247 0 min 3,4 C 9,3 C 4,5 km/h (1 Bft)
15.12.2020 12:15 7,9 C 5,6 C 7,2 C 9,6 C 9,6 C 1,7 C 74 % 79 % 1015,1 hPa 0,0 l/m 2,9 km/h (1 Bft) S-SO 157 0 min 3,6 C 9,6 C 4,3 km/h (1 Bft)
15.12.2020 12:20 7,9 C 5,6 C 7,3 C 9,6 C 9,6 C 1,7 C 74 % 79 % 1015,1 hPa 0,0 l/m 2,3 km/h (1 Bft) S-SO 157 0 min 3,6 C 9,6 C 5,5 km/h (1 Bft)
15.12.2020 12:25 8,0 C 5,6 C 7,4 C 9,4 C 9,4 C 1,4 C 73 % 78 % 1015,1 hPa 0,0 l/m 2,4 km/h (1 Bft) S-SW 202 0 min 3,5 C 9,4 C 7,6 km/h (2 Bft)
15.12.2020 12:30 8,0 C 5,6 C 7,5 C 9,3 C 9,3 C 1,3 C 73 % 78 % 1015,1 hPa 0,0 l/m 2,4 km/h (1 Bft) O 90 0 min 3,5 C 9,3 C 1,9 km/h (1 Bft)
15.12.2020 12:35 8,1 C 5,6 C 7,7 C 9,4 C 9,4 C 1,3 C 73 % 78 % 1015,1 hPa 0,0 l/m 1,4 km/h (1 Bft) S-SO 157 0 min 3,6 C 9,4 C 0,0 km/h (0 Bft)
15.12.2020 12:40 8,3 C 5,6 C 7,9 C 9,7 C 9,7 C 1,4 C 74 % 78 % 1015,1 hPa 0,0 l/m 0,6 km/h (0 Bft) O-NO 67 0 min 3,9 C 9,7 C 0,0 km/h (0 Bft)
15.12.2020 12:45 8,4 C 5,7 C 8,1 C 10,0 C 10,0 C 1,6 C 73 % 78 % 1015,1 hPa 0,0 l/m 0,2 km/h (0 Bft) O-NO 67 0 min 3,8 C 10,0 C 0,0 km/h (0 Bft)
15.12.2020 12:50 8,5 C 5,7 C 8,1 C 10,1 C 10,1 C 1,6 C 73 % 77 % 1014,9 hPa 0,0 l/m 0,3 km/h (0 Bft) O-NO 67 0 min 3,9 C 10,1 C 0,0 km/h (0 Bft)
15.12.2020 12:55 8,5 C 5,7 C 8,3 C 10,1 C 10,1 C 1,6 C 73 % 76 % 1014,9 hPa 0,0 l/m 0,3 km/h (0 Bft) O-NO 67 0 min 3,9 C 10,1 C 1,9 km/h (1 Bft)
15.12.2020 13:00 8,7 C 5,7 C 8,3 C 10,1 C 10,1 C 1,4 C 73 % 77 % 1014,9 hPa 0,0 l/m 0,3 km/h (0 Bft) S 180 0 min 4,1 C 10,1 C 0,0 km/h (0 Bft)
15.12.2020 13:05 8,6 C 5,7 C 8,2 C 10,1 C 10,1 C 1,5 C 73 % 77 % 1014,9 hPa 0,0 l/m 1,0 km/h (0 Bft) S-SW 202 0 min 4,0 C 10,1 C 1,9 km/h (1 Bft)
15.12.2020 13:10 8,6 C 5,7 C 8,1 C 10,1 C 10,1 C 1,5 C 73 % 77 % 1015,1 hPa 0,0 l/m 1,3 km/h (1 Bft) SW 225 0 min 4,0 C 10,1 C 3,7 km/h (1 Bft)
15.12.2020 13:15 8,6 C 5,7 C 8,1 C 10,0 C 10,0 C 1,4 C 73 % 77 % 1015,1 hPa 0,0 l/m 1,9 km/h (1 Bft) SW 225 0 min 4,0 C 10,0 C 2,3 km/h (1 Bft)
15.12.2020 13:20 8,7 C 5,7 C 8,0 C 9,9 C 9,9 C 1,2 C 73 % 78 % 1015,1 hPa 0,0 l/m 2,6 km/h (1 Bft) S-SW 202 0 min 4,1 C 9,9 C 2,6 km/h (1 Bft)
15.12.2020 13:25 8,7 C 5,7 C 8,2 C 10,1 C 10,1 C 1,4 C 73 % 78 % 1015,1 hPa 0,0 l/m 1,9 km/h (1 Bft) W 270 0 min 4,1 C 10,1 C 0,0 km/h (0 Bft)
15.12.2020 13:30 8,8 C 5,7 C 8,4 C 10,4 C 10,4 C 1,6 C 73 % 78 % 1015,2 hPa 0,0 l/m 1,0 km/h (0 Bft) S 180 0 min 4,2 C 10,4 C 1,6 km/h (1 Bft)
15.12.2020 13:35 8,9 C 5,7 C 8,3 C 10,5 C 10,5 C 1,6 C 73 % 78 % 1015,2 hPa 0,0 l/m 0,2 km/h (0 Bft) S 180 0 min 4,3 C 10,5 C 0,0 km/h (0 Bft)
15.12.2020 13:40 9,0 C 5,7 C 8,3 C 10,4 C 10,4 C 1,4 C 73 % 77 % 1015,2 hPa 0,0 l/m 0,2 km/h (0 Bft) S 180 0 min 4,4 C 10,4 C 0,0 km/h (0 Bft)
15.12.2020 13:45 9,1 C 5,8 C 8,4 C 10,3 C 10,3 C 1,2 C 73 % 77 % 1015,2 hPa 0,0 l/m 0,0 km/h (0 Bft) NO 45 0 min 4,5 C 10,3 C 0,0 km/h (0 Bft)
15.12.2020 13:50 9,1 C 5,8 C 8,4 C 10,1 C 10,1 C 1,0 C 73 % 78 % 1014,9 hPa 0,0 l/m 0,0 km/h (0 Bft) NO 45 0 min 4,5 C 10,1 C 0,0 km/h (0 Bft)
15.12.2020 13:55 9,1 C 5,8 C 8,3 C 10,1 C 10,1 C 1,0 C 73 % 78 % 1014,9 hPa 0,0 l/m 0,0 km/h (0 Bft) SW 225 0 min 4,5 C 10,1 C 0,0 km/h (0 Bft)
15.12.2020 14:00 9,1 C 5,8 C 8,3 C 10,0 C 10,0 C 0,9 C 73 % 78 % 1014,9 hPa 0,0 l/m 0,0 km/h (0 Bft) SW 225 0 min 4,5 C 10,0 C 0,0 km/h (0 Bft)
15.12.2020 14:05 9,1 C 5,8 C 8,3 C 9,9 C 9,9 C 0,8 C 73 % 78 % 1014,9 hPa 0,0 l/m 0,0 km/h (0 Bft) SW 225 0 min 4,5 C 9,9 C 0,0 km/h (0 Bft)
15.12.2020 14:10 9,1 C 5,8 C 8,2 C 9,8 C 9,8 C 0,7 C 73 % 78 % 1015,8 hPa 0,0 l/m 0,2 km/h (0 Bft) N-NO 22 0 min 4,5 C 9,8 C 3,2 km/h (1 Bft)
15.12.2020 14:15 9,1 C 5,8 C 8,2 C 9,7 C 9,7 C 0,6 C 73 % 78 % 1015,8 hPa 0,0 l/m 0,6 km/h (0 Bft) O-NO 67 0 min 4,5 C 9,7 C 0,0 km/h (0 Bft)
15.12.2020 14:20 8,9 C 5,8 C 8,1 C 9,6 C 9,6 C 0,7 C 73 % 78 % 1015,8 hPa 0,0 l/m 0,6 km/h (0 Bft) O-NO 67 0 min 4,3 C 9,6 C 0,0 km/h (0 Bft)
15.12.2020 14:25 8,9 C 5,8 C 8,1 C 9,4 C 9,4 C 0,5 C 73 % 78 % 1015,8 hPa 0,0 l/m 0,0 km/h (0 Bft) N 360 0 min 4,3 C 9,4 C 0,0 km/h (0 Bft)
15.12.2020 14:30 8,8 C 5,8 C 8,2 C 9,4 C 9,4 C 0,6 C 73 % 77 % 1015,2 hPa 0,0 l/m 0,0 km/h (0 Bft) O-NO 67 0 min 4,2 C 9,4 C 0,0 km/h (0 Bft)
15.12.2020 14:35 8,8 C 5,8 C 8,1 C 9,3 C 9,3 C 0,5 C 73 % 77 % 1015,2 hPa 0,0 l/m 0,3 km/h (0 Bft) O-NO 67 0 min 4,2 C 9,3 C 2,3 km/h (1 Bft)
15.12.2020 14:40 8,7 C 5,8 C 8,0 C 9,2 C 9,2 C 0,5 C 73 % 77 % 1015,2 hPa 0,0 l/m 1,0 km/h (0 Bft) O-NO 67 0 min 4,1 C 9,2 C 2,6 km/h (1 Bft)
15.12.2020 14:45 8,7 C 5,8 C 8,0 C 9,2 C 9,2 C 0,5 C 73 % 77 % 1015,2 hPa 0,0 l/m 1,6 km/h (1 Bft) O 90 0 min 4,1 C 9,2 C 3,9 km/h (1 Bft)
15.12.2020 14:50 8,5 C 5,9 C 7,9 C 9,1 C 9,1 C 0,6 C 73 % 77 % 1015,2 hPa 0,0 l/m 1,4 km/h (1 Bft) O-NO 67 0 min 3,9 C 9,1 C 3,1 km/h (1 Bft)
15.12.2020 14:55 8,4 C 5,9 C 7,8 C 9,0 C 9,0 C 0,6 C 73 % 76 % 1015,2 hPa 0,0 l/m 1,1 km/h (1 Bft) O-SO 112 0 min 3,8 C 9,0 C 1,8 km/h (1 Bft)
15.12.2020 15:00 8,3 C 5,9 C 7,8 C 8,8 C 8,8 C 0,5 C 73 % 76 % 1015,2 hPa 0,0 l/m 1,8 km/h (1 Bft) O-NO 67 0 min 3,8 C 8,8 C 4,5 km/h (1 Bft)
15.12.2020 15:05 8,3 C 5,9 C 7,6 C 8,6 C 8,6 C 0,3 C 73 % 76 % 1015,2 hPa 0,0 l/m 2,4 km/h (1 Bft) O-NO 67 0 min 3,8 C 8,6 C 2,3 km/h (1 Bft)
15.12.2020 15:10 8,1 C 5,9 C 7,6 C 8,5 C 8,5 C 0,4 C 73 % 77 % 1015,4 hPa 0,0 l/m 2,3 km/h (1 Bft) O-NO 67 0 min 3,6 C 8,5 C 2,4 km/h (1 Bft)
15.12.2020 15:15 8,0 C 5,9 C 7,5 C 8,4 C 8,4 C 0,4 C 74 % 77 % 1015,4 hPa 0,0 l/m 1,9 km/h (1 Bft) O-NO 67 0 min 3,7 C 8,4 C 0,0 km/h (0 Bft)
15.12.2020 15:20 8,1 C 5,9 C 7,5 C 8,4 C 8,4 C 0,3 C 74 % 77 % 1015,4 hPa 0,0 l/m 1,4 km/h (1 Bft) O-NO 67 0 min 3,8 C 8,4 C 0,0 km/h (0 Bft)
15.12.2020 15:25 8,0 C 5,9 C 7,3 C 8,3 C 8,3 C 0,3 C 74 % 76 % 1015,4 hPa 0,0 l/m 1,0 km/h (0 Bft) O-NO 67 0 min 3,7 C 8,3 C 1,8 km/h (1 Bft)
15.12.2020 15:30 7,9 C 5,9 C 7,3 C 8,2 C 8,2 C 0,3 C 74 % 77 % 1015,2 hPa 0,0 l/m 0,8 km/h (0 Bft) NO 45 0 min 3,6 C 8,2 C 0,0 km/h (0 Bft)
15.12.2020 15:35 7,9 C 5,9 C 7,1 C 8,0 C 8,0 C 0,1 C 74 % 77 % 1015,2 hPa 0,0 l/m 0,3 km/h (0 Bft) O-SO 112 0 min 3,6 C 8,0 C 0,0 km/h (0 Bft)
15.12.2020 15:40 7,9 C 5,9 C 7,1 C 8,0 C 8,0 C 0,1 C 74 % 77 % 1015,2 hPa 0,0 l/m 0,0 km/h (0 Bft) O-SO 112 0 min 3,6 C 8,0 C 0,0 km/h (0 Bft)
15.12.2020 15:45 7,7 C 5,9 C 7,0 C 7,8 C 7,8 C 0,1 C 74 % 78 % 1015,2 hPa 0,0 l/m 0,2 km/h (0 Bft) O-SO 112 0 min 3,4 C 7,8 C 0,0 km/h (0 Bft)
15.12.2020 15:50 7,6 C 5,9 C 6,9 C 7,7 C 7,7 C 0,1 C 74 % 78 % 1015,5 hPa 0,0 l/m 0,5 km/h (0 Bft) O-NO 67 0 min 3,3 C 7,7 C 0,0 km/h (0 Bft)
15.12.2020 15:55 7,6 C 5,9 C 6,8 C 7,6 C 7,6 C 0,0 C 74 % 79 % 1015,5 hPa 0,0 l/m 0,5 km/h (0 Bft) W-SW 247 0 min 3,3 C 7,6 C 0,0 km/h (0 Bft)
15.12.2020 16:00 7,5 C 5,9 C 6,7 C 7,5 C 7,5 C 0,0 C 74 % 79 % 1015,5 hPa 0,0 l/m 0,2 km/h (0 Bft) W-SW 247 0 min 3,2 C 7,5 C 0,0 km/h (0 Bft)
15.12.2020 16:05 7,5 C 5,9 C 6,6 C 7,5 C 7,4 C 0,0 C 74 % 79 % 1015,5 hPa 0,0 l/m 0,0 km/h (0 Bft) O-SO 112 0 min 3,2 C 7,4 C 0,0 km/h (0 Bft)
15.12.2020 16:10 7,4 C 5,9 C 6,5 C 7,4 C 7,3 C 0,0 C 74 % 79 % 1015,9 hPa 0,0 l/m 0,0 km/h (0 Bft) S 180 0 min 3,1 C 7,3 C 0,0 km/h (0 Bft)
15.12.2020 16:15 7,2 C 5,9 C 6,3 C 7,2 C 7,2 C 0,0 C 74 % 79 % 1015,9 hPa 0,0 l/m 0,0 km/h (0 Bft) S 180 0 min 2,9 C 7,2 C 0,0 km/h (0 Bft)
15.12.2020 16:20 7,2 C 5,9 C 6,3 C 7,1 C 7,0 C 0,0 C 74 % 80 % 1015,9 hPa 0,0 l/m 0,0 km/h (0 Bft) W 270 0 min 2,9 C 7,0 C 0,0 km/h (0 Bft)
15.12.2020 16:25 7,1 C 6,1 C 6,1 C 7,0 C 6,9 C 0,0 C 74 % 80 % 1015,9 hPa 0,0 l/m 0,3 km/h (0 Bft) S-SW 202 0 min 2,8 C 6,9 C 2,3 km/h (1 Bft)
15.12.2020 16:30 7,1 C 6,1 C 6,1 C 7,1 C 7,0 C 0,0 C 74 % 80 % 1015,7 hPa 0,0 l/m 0,3 km/h (0 Bft) S-SW 202 0 min 2,8 C 7,0 C 0,0 km/h (0 Bft)
15.12.2020 16:35 7,1 C 6,1 C 6,1 C 7,1 C 7,0 C 0,0 C 75 % 80 % 1015,7 hPa 0,0 l/m 0,2 km/h (0 Bft) O-SO 112 0 min 3,0 C 7,0 C 0,0 km/h (0 Bft)
15.12.2020 16:40 7,1 C 6,1 C 6,2 C 7,1 C 7,0 C 0,0 C 75 % 80 % 1015,7 hPa 0,0 l/m 0,0 km/h (0 Bft) N-NO 22 0 min 3,0 C 7,0 C 0,0 km/h (0 Bft)
15.12.2020 16:45 7,1 C 6,1 C 6,2 C 7,1 C 7,0 C 0,0 C 75 % 80 % 1015,7 hPa 0,0 l/m 0,0 km/h (0 Bft) O 90 0 min 3,0 C 7,0 C 0,0 km/h (0 Bft)
15.12.2020 16:50 7,1 C 6,1 C 6,2 C 7,1 C 7,1 C 0,0 C 75 % 80 % 1016,0 hPa 0,0 l/m 0,3 km/h (0 Bft) S 180 0 min 3,0 C 7,1 C 0,0 km/h (0 Bft)
15.12.2020 16:55 7,0 C 6,1 C 6,1 C 7,1 C 7,1 C 0,1 C 75 % 81 % 1016,0 hPa 0,0 l/m 0,3 km/h (0 Bft) W 270 0 min 2,9 C 7,1 C 0,0 km/h (0 Bft)
15.12.2020 17:00 7,0 C 6,1 C 6,1 C 7,0 C 7,0 C 0,0 C 75 % 81 % 1016,0 hPa 0,0 l/m 0,2 km/h (0 Bft) O-NO 67 0 min 2,9 C 7,0 C 1,6 km/h (1 Bft)
15.12.2020 17:05 6,9 C 6,1 C 6,1 C 7,0 C 7,0 C 0,1 C 75 % 81 % 1016,0 hPa 0,0 l/m 0,0 km/h (0 Bft) N-NO 22 0 min 2,8 C 7,0 C 0,0 km/h (0 Bft)
15.12.2020 17:10 6,9 C 6,1 C 6,1 C 7,0 C 7,0 C 0,1 C 75 % 81 % 1016,1 hPa 0,0 l/m 0,0 km/h (0 Bft) O-NO 67 0 min 2,8 C 7,0 C 0,0 km/h (0 Bft)
15.12.2020 17:15 6,9 C 6,1 C 6,1 C 6,7 C 6,4 C 0,0 C 76 % 82 % 1016,1 hPa 0,0 l/m 0,0 km/h (0 Bft) NO 45 0 min 3,0 C 6,4 C 0,0 km/h (0 Bft)
15.12.2020 17:20 6,8 C 6,1 C 5,9 C 6,6 C 6,3 C 0,0 C 76 % 82 % 1016,1 hPa 0,0 l/m 0,0 km/h (0 Bft) NO 45 0 min 2,9 C 6,3 C 0,0 km/h (0 Bft)
15.12.2020 17:25 6,8 C 6,2 C 5,8 C 6,6 C 6,2 C 0,0 C 77 % 83 % 1016,1 hPa 0,0 l/m 0,0 km/h (0 Bft) NO 45 0 min 3,1 C 6,2 C 0,0 km/h (0 Bft)
15.12.2020 17:30 6,7 C 6,2 C 5,7 C 6,5 C 6,2 C 0,0 C 77 % 83 % 1016,4 hPa 0,0 l/m 0,0 km/h (0 Bft) O-SO 112 0 min 3,0 C 6,2 C 0,0 km/h (0 Bft)
15.12.2020 17:35 6,6 C 6,1 C 5,8 C 6,5 C 6,2 C 0,0 C 77 % 84 % 1016,4 hPa 0,0 l/m 0,2 km/h (0 Bft) O-NO 67 0 min 2,9 C 6,2 C 2,3 km/h (1 Bft)
15.12.2020 17:40 6,7 C 6,2 C 5,8 C 6,5 C 6,0 C 0,0 C 78 % 84 % 1016,4 hPa 0,0 l/m 0,2 km/h (0 Bft) O-NO 67 0 min 3,1 C 6,0 C 0,0 km/h (0 Bft)
15.12.2020 17:45 6,7 C 6,2 C 5,7 C 6,4 C 5,7 C 0,0 C 79 % 84 % 1016,4 hPa 0,7 l/m 0,2 km/h (0 Bft) O-NO 67 0 min 3,3 C 5,7 C 0,0 km/h (0 Bft)
15.12.2020 17:50 6,5 C 6,3 C 5,6 C 6,2 C 5,6 C 0,0 C 79 % 85 % 1016,8 hPa 0,0 l/m 0,3 km/h (0 Bft) O-NO 67 0 min 3,1 C 5,6 C 0,0 km/h (0 Bft)
15.12.2020 17:55 6,4 C 6,3 C 5,6 C 6,1 C 5,5 C 0,0 C 79 % 85 % 1016,8 hPa 0,0 l/m 0,2 km/h (0 Bft) O-NO 67 0 min 3,0 C 5,5 C 0,0 km/h (0 Bft)
15.12.2020 18:00 6,5 C 6,4 C 5,5 C 6,2 C 5,5 C 0,0 C 80 % 86 % 1016,8 hPa 0,0 l/m 0,0 km/h (0 Bft) O-NO 67 0 min 3,3 C 5,5 C 0,0 km/h (0 Bft)
15.12.2020 18:05 6,3 C 6,4 C 5,5 C 6,0 C 5,4 C 0,0 C 80 % 86 % 1016,8 hPa 0,0 l/m 0,0 km/h (0 Bft) O-NO 67 0 min 3,1 C 5,4 C 0,0 km/h (0 Bft)
15.12.2020 18:10 6,2 C 6,4 C 5,4 C 5,9 C 5,4 C 0,0 C 81 % 87 % 1016,7 hPa 0,0 l/m 0,0 km/h (0 Bft) O-NO 67 0 min 3,2 C 5,4 C 0,0 km/h (0 Bft)
15.12.2020 18:15 6,2 C 6,4 C 5,4 C 5,9 C 5,4 C 0,0 C 81 % 87 % 1016,7 hPa 0,0 l/m 0,0 km/h (0 Bft) O-NO 67 0 min 3,2 C 5,4 C 0,0 km/h (0 Bft)
15.12.2020 18:20 6,1 C 6,4 C 5,3 C 5,9 C 5,4 C 0,0 C 82 % 87 % 1016,7 hPa 0,0 l/m 0,0 km/h (0 Bft) O-NO 67 0 min 3,3 C 5,4 C 0,0 km/h (0 Bft)
15.12.2020 18:25 6,0 C 6,4 C 5,2 C 5,8 C 5,4 C 0,0 C 82 % 88 % 1016,7 hPa 0,0 l/m 0,0 km/h (0 Bft) O-NO 67 0 min 3,2 C 5,4 C 0,0 km/h (0 Bft)
15.12.2020 18:30 6,1 C 6,4 C 5,2 C 5,9 C 5,4 C 0,0 C 82 % 88 % 1016,8 hPa 0,0 l/m 0,0 km/h (0 Bft) O-NO 67 0 min 3,3 C 5,4 C 0,0 km/h (0 Bft)
15.12.2020 18:35 6,0 C 6,4 C 5,1 C 5,8 C 5,3 C 0,0 C 82 % 88 % 1016,8 hPa 0,0 l/m 0,2 km/h (0 Bft) O-NO 67 0 min 3,2 C 5,3 C 0,0 km/h (0 Bft)
15.12.2020 18:40 5,9 C 6,5 C 5,1 C 5,7 C 5,3 C 0,0 C 83 % 88 % 1016,8 hPa 0,0 l/m 0,2 km/h (0 Bft) N-NO 22 0 min 3,2 C 5,3 C 0,0 km/h (0 Bft)
15.12.2020 18:45 5,8 C 6,4 C 5,1 C 5,6 C 5,3 C 0,0 C 83 % 89 % 1016,8 hPa 0,0 l/m 0,0 km/h (0 Bft) S-SO 157 0 min 3,1 C 5,3 C 0,0 km/h (0 Bft)
15.12.2020 18:50 5,9 C 6,5 C 5,1 C 5,7 C 5,2 C 0,0 C 83 % 89 % 1017,2 hPa 0,0 l/m 0,0 km/h (0 Bft) SW 225 0 min 3,2 C 5,2 C 0,0 km/h (0 Bft)
15.12.2020 18:55 5,9 C 6,5 C 4,9 C 5,7 C 5,2 C 0,0 C 84 % 90 % 1017,2 hPa 0,0 l/m 0,2 km/h (0 Bft) O-NO 67 0 min 3,4 C 5,2 C 0,0 km/h (0 Bft)
15.12.2020 19:00 5,9 C 6,5 C 4,9 C 5,7 C 5,2 C 0,0 C 84 % 91 % 1017,2 hPa 0,0 l/m 0,3 km/h (0 Bft) O-SO 112 0 min 3,4 C 5,2 C 0,0 km/h (0 Bft)
15.12.2020 19:05 5,7 C 6,5 C 4,9 C 5,5 C 5,2 C 0,0 C 84 % 91 % 1017,2 hPa 0,0 l/m 0,2 km/h (0 Bft) O-NO 67 0 min 3,2 C 5,2 C 0,0 km/h (0 Bft)
15.12.2020 19:10 5,7 C 6,5 C 4,9 C 5,5 C 5,2 C 0,0 C 84 % 91 % 1017,1 hPa 0,0 l/m 0,0 km/h (0 Bft) O-NO 67 0 min 3,2 C 5,2 C 0,0 km/h (0 Bft)
15.12.2020 19:15 5,7 C 6,5 C 4,9 C 5,5 C 5,2 C 0,0 C 84 % 91 % 1017,1 hPa 0,0 l/m 0,0 km/h (0 Bft) O-NO 67 0 min 3,2 C 5,2 C 0,0 km/h (0 Bft)
15.12.2020 19:20 5,7 C 6,5 C 4,9 C 5,5 C 5,2 C 0,0 C 84 % 91 % 1017,1 hPa 0,0 l/m 0,0 km/h (0 Bft) O-NO 67 0 min 3,2 C 5,2 C 0,0 km/h (0 Bft)
15.12.2020 19:25 5,6 C 6,5 C 4,8 C 5,5 C 5,2 C 0,0 C 84 % 92 % 1017,1 hPa 0,0 l/m 0,0 km/h (0 Bft) O-NO 67 0 min 3,1 C 5,2 C 0,0 km/h (0 Bft)
15.12.2020 19:30 5,6 C 6,5 C 4,8 C 5,4 C 5,1 C 0,0 C 85 % 92 % 1017,0 hPa 0,0 l/m 0,0 km/h (0 Bft) O-NO 67 0 min 3,3 C 5,1 C 0,0 km/h (0 Bft)
15.12.2020 19:35 5,6 C 6,5 C 4,8 C 5,4 C 5,1 C 0,0 C 85 % 92 % 1017,0 hPa 0,0 l/m 0,2 km/h (0 Bft) O-NO 67 0 min 3,3 C 5,1 C 0,0 km/h (0 Bft)
15.12.2020 19:40 5,6 C 6,5 C 4,8 C 5,4 C 5,1 C 0,0 C 85 % 92 % 1017,0 hPa 0,0 l/m 0,2 km/h (0 Bft) O-NO 67 0 min 3,3 C 5,1 C 0,0 km/h (0 Bft)
15.12.2020 19:45 5,5 C 6,6 C 4,9 C 5,4 C 5,1 C 0,0 C 85 % 92 % 1017,0 hPa 0,0 l/m 0,2 km/h (0 Bft) O-NO 67 0 min 3,2 C 5,1 C 0,0 km/h (0 Bft)
15.12.2020 19:50 5,5 C 6,5 C 4,8 C 5,4 C 5,2 C 0,0 C 85 % 92 % 1017,2 hPa 0,0 l/m 0,2 km/h (0 Bft) O-NO 67 0 min 3,2 C 5,2 C 0,0 km/h (0 Bft)
15.12.2020 19:55 5,5 C 6,6 C 4,8 C 5,4 C 5,1 C 0,0 C 86 % 92 % 1017,2 hPa 0,0 l/m 0,0 km/h (0 Bft) O-NO 67 0 min 3,3 C 5,1 C 0,0 km/h (0 Bft)
15.12.2020 20:00 5,5 C 6,6 C 4,7 C 5,4 C 5,1 C 0,0 C 86 % 92 % 1017,2 hPa 0,0 l/m 0,5 km/h (0 Bft) S-SO 157 0 min 3,3 C 5,1 C 0,0 km/h (0 Bft)
15.12.2020 20:05 5,4 C 6,6 C 4,7 C 5,3 C 5,0 C 0,0 C 86 % 92 % 1017,2 hPa 0,0 l/m 0,6 km/h (0 Bft) SO 135 0 min 3,3 C 5,0 C 0,0 km/h (0 Bft)
15.12.2020 20:10 5,5 C 6,6 C 4,7 C 5,3 C 5,0 C 0,0 C 86 % 92 % 1017,7 hPa 0,0 l/m 0,5 km/h (0 Bft) O-NO 67 0 min 3,3 C 5,0 C 1,9 km/h (1 Bft)
15.12.2020 20:15 5,5 C 6,5 C 4,7 C 5,3 C 5,0 C 0,0 C 86 % 92 % 1017,7 hPa 0,0 l/m 0,5 km/h (0 Bft) O-NO 67 0 min 3,3 C 5,0 C 1,8 km/h (1 Bft)
15.12.2020 20:20 5,5 C 6,5 C 4,7 C 5,3 C 5,0 C 0,0 C 86 % 93 % 1017,7 hPa 0,0 l/m 0,5 km/h (0 Bft) NO 45 0 min 3,3 C 5,0 C 0,0 km/h (0 Bft)
15.12.2020 20:25 5,4 C 6,5 C 4,7 C 5,3 C 5,1 C 0,0 C 86 % 93 % 1017,7 hPa 0,0 l/m 0,2 km/h (0 Bft) NW 315 0 min 3,3 C 5,1 C 0,0 km/h (0 Bft)
15.12.2020 20:30 5,4 C 6,5 C 4,7 C 5,3 C 5,1 C 0,0 C 87 % 93 % 1017,7 hPa 0,0 l/m 0,0 km/h (0 Bft) W 270 0 min 3,4 C 5,1 C 0,0 km/h (0 Bft)
15.12.2020 20:35 5,3 C 6,5 C 4,7 C 5,2 C 5,1 C 0,0 C 86 % 93 % 1017,7 hPa 0,0 l/m 0,0 km/h (0 Bft) W 270 0 min 3,2 C 5,1 C 0,0 km/h (0 Bft)
15.12.2020 20:40 5,3 C 6,5 C 4,7 C 5,2 C 5,1 C 0,0 C 86 % 93 % 1017,7 hPa 0,0 l/m 0,2 km/h (0 Bft) S-SO 157 0 min 3,2 C 5,1 C 2,6 km/h (1 Bft)
15.12.2020 20:45 5,3 C 6,6 C 4,7 C 5,2 C 5,1 C 0,0 C 86 % 93 % 1017,7 hPa 0,0 l/m 0,2 km/h (0 Bft) S-SO 157 0 min 3,2 C 5,1 C 0,0 km/h (0 Bft)
15.12.2020 20:50 5,3 C 6,6 C 4,7 C 5,2 C 5,1 C 0,0 C 86 % 93 % 1017,8 hPa 0,0 l/m 0,2 km/h (0 Bft) O 90 0 min 3,2 C 5,1 C 0,0 km/h (0 Bft)
15.12.2020 20:55 5,3 C 6,5 C 4,7 C 5,3 C 5,2 C 0,0 C 86 % 93 % 1017,8 hPa 0,0 l/m 0,3 km/h (0 Bft) S-SW 202 0 min 3,2 C 5,2 C 0,0 km/h (0 Bft)
15.12.2020 21:00 5,3 C 6,5 C 4,8 C 5,3 C 5,2 C 0,0 C 86 % 93 % 1017,8 hPa 0,0 l/m 0,3 km/h (0 Bft) S-SW 202 0 min 3,2 C 5,2 C 0,0 km/h (0 Bft)
15.12.2020 21:05 5,3 C 6,5 C 4,8 C 5,3 C 5,2 C 0,0 C 86 % 93 % 1017,8 hPa 0,0 l/m 0,2 km/h (0 Bft) S-SW 202 0 min 3,2 C 5,2 C 0,0 km/h (0 Bft)
15.12.2020 21:10 5,3 C 6,5 C 4,8 C 5,3 C 5,2 C 0,0 C 86 % 93 % 1018,1 hPa 0,0 l/m 0,0 km/h (0 Bft) O-SO 112 0 min 3,2 C 5,2 C 0,0 km/h (0 Bft)
15.12.2020 21:15 5,2 C 6,6 C 4,8 C 5,2 C 5,2 C 0,0 C 87 % 93 % 1018,1 hPa 0,0 l/m 0,0 km/h (0 Bft) O-SO 112 0 min 3,2 C 5,2 C 0,0 km/h (0 Bft)
15.12.2020 21:20 5,2 C 6,6 C 4,8 C 5,2 C 5,2 C 0,0 C 87 % 93 % 1018,1 hPa 0,0 l/m 0,0 km/h (0 Bft) O-SO 112 0 min 3,2 C 5,2 C 0,0 km/h (0 Bft)
15.12.2020 21:25 5,2 C 6,6 C 4,8 C 5,3 C 5,3 C 0,1 C 87 % 93 % 1018,1 hPa 0,0 l/m 0,6 km/h (0 Bft) NO 45 0 min 3,2 C 5,3 C 2,9 km/h (1 Bft)
15.12.2020 21:30 5,2 C 6,7 C 4,8 C 5,4 C 5,4 C 0,2 C 87 % 93 % 1018,2 hPa 0,0 l/m 1,1 km/h (1 Bft) O-NO 67 0 min 3,2 C 5,4 C 1,8 km/h (1 Bft)
15.12.2020 21:35 5,2 C 6,6 C 4,9 C 5,4 C 5,4 C 0,2 C 87 % 93 % 1018,2 hPa 0,0 l/m 1,8 km/h (1 Bft) O-NO 67 0 min 3,2 C 5,4 C 3,4 km/h (1 Bft)
15.12.2020 21:40 5,3 C 6,6 C 5,0 C 5,5 C 5,5 C 0,2 C 87 % 93 % 1018,2 hPa 0,0 l/m 1,8 km/h (1 Bft) NO 45 0 min 3,3 C 5,5 C 0,0 km/h (0 Bft)
15.12.2020 21:45 5,3 C 6,6 C 5,0 C 5,6 C 5,6 C 0,3 C 87 % 93 % 1018,2 hPa 0,0 l/m 0,8 km/h (0 Bft) O-NO 67 0 min 3,3 C 5,6 C 0,0 km/h (0 Bft)
15.12.2020 21:50 5,3 C 6,6 C 5,1 C 5,7 C 5,7 C 0,4 C 87 % 93 % 1018,2 hPa 0,0 l/m 0,0 km/h (0 Bft) O-NO 67 0 min 3,3 C 5,7 C 0,0 km/h (0 Bft)
15.12.2020 21:55 5,5 C 6,6 C 5,2 C 5,8 C 5,8 C 0,3 C 87 % 93 % 1018,2 hPa 0,0 l/m 0,0 km/h (0 Bft) O-NO 67 0 min 3,5 C 5,8 C 0,0 km/h (0 Bft)
15.12.2020 22:00 5,5 C 6,6 C 5,2 C 5,8 C 5,8 C 0,3 C 87 % 93 % 1018,2 hPa 0,0 l/m 0,0 km/h (0 Bft) O-NO 67 0 min 3,5 C 5,8 C 0,0 km/h (0 Bft)
15.12.2020 22:05 5,5 C 6,6 C 5,3 C 5,9 C 5,9 C 0,4 C 87 % 93 % 1018,2 hPa 0,0 l/m 0,0 km/h (0 Bft) O 90 0 min 3,5 C 5,9 C 0,0 km/h (0 Bft)
15.12.2020 22:10 5,6 C 6,6 C 5,4 C 6,0 C 6,0 C 0,4 C 87 % 93 % 1018,2 hPa 0,0 l/m 0,2 km/h (0 Bft) S 180 0 min 3,6 C 6,0 C 2,1 km/h (1 Bft)
15.12.2020 22:15 5,6 C 6,6 C 5,5 C 6,1 C 6,1 C 0,5 C 87 % 93 % 1018,2 hPa 0,0 l/m 0,8 km/h (0 Bft) O-NO 67 0 min 3,6 C 6,1 C 1,8 km/h (1 Bft)
15.12.2020 22:20 5,8 C 6,6 C 5,6 C 6,2 C 6,2 C 0,4 C 87 % 93 % 1018,2 hPa 0,0 l/m 0,6 km/h (0 Bft) O-NO 67 0 min 3,8 C 6,2 C 0,0 km/h (0 Bft)
15.12.2020 22:25 5,8 C 6,6 C 5,6 C 6,2 C 6,2 C 0,4 C 87 % 93 % 1018,2 hPa 0,0 l/m 0,0 km/h (0 Bft) O-SO 112 0 min 3,8 C 6,2 C 0,0 km/h (0 Bft)
15.12.2020 22:30 5,9 C 6,6 C 5,7 C 6,2 C 6,2 C 0,3 C 87 % 93 % 1018,4 hPa 0,0 l/m 0,0 km/h (0 Bft) O-SO 112 0 min 3,9 C 6,2 C 1,8 km/h (1 Bft)
15.12.2020 22:35 6,0 C 6,6 C 5,8 C 6,3 C 6,3 C 0,3 C 87 % 93 % 1018,4 hPa 0,0 l/m 0,2 km/h (0 Bft) S-SO 157 0 min 4,0 C 6,3 C 0,0 km/h (0 Bft)
15.12.2020 22:40 6,0 C 6,6 C 5,9 C 6,4 C 6,4 C 0,4 C 87 % 93 % 1018,4 hPa 0,0 l/m 1,0 km/h (0 Bft) S-SO 157 0 min 4,0 C 6,4 C 2,1 km/h (1 Bft)
15.12.2020 22:45 6,3 C 6,5 C 6,0 C 6,5 C 6,5 C 0,2 C 87 % 93 % 1018,4 hPa 0,0 l/m 2,1 km/h (1 Bft) S 180 0 min 4,3 C 6,5 C 5,5 km/h (1 Bft)
15.12.2020 22:50 6,4 C 6,6 C 6,1 C 6,7 C 6,7 C 0,3 C 87 % 93 % 1018,2 hPa 0,0 l/m 2,6 km/h (1 Bft) S-SO 157 0 min 4,4 C 6,7 C 3,2 km/h (1 Bft)
15.12.2020 22:55 6,7 C 6,6 C 6,2 C 6,9 C 6,9 C 0,2 C 88 % 93 % 1018,2 hPa 0,0 l/m 2,4 km/h (1 Bft) S 180 0 min 4,9 C 6,9 C 2,4 km/h (1 Bft)
15.12.2020 23:00 6,8 C 6,6 C 6,3 C 7,0 C 7,0 C 0,2 C 88 % 93 % 1018,2 hPa 0,0 l/m 1,9 km/h (1 Bft) SW 225 0 min 5,0 C 7,0 C 2,3 km/h (1 Bft)
15.12.2020 23:05 6,8 C 6,6 C 6,4 C 7,1 C 7,1 C 0,3 C 87 % 92 % 1018,2 hPa 0,0 l/m 1,1 km/h (1 Bft) S-SO 157 0 min 4,8 C 7,1 C 2,9 km/h (1 Bft)
15.12.2020 23:10 7,0 C 6,6 C 6,4 C 7,3 C 7,3 C 0,3 C 87 % 92 % 1018,6 hPa 0,0 l/m 1,3 km/h (1 Bft) S-SW 202 0 min 5,0 C 7,3 C 0,0 km/h (0 Bft)
15.12.2020 23:15 7,2 C 6,6 C 6,4 C 7,4 C 7,4 C 0,2 C 87 % 93 % 1018,6 hPa 0,0 l/m 0,5 km/h (0 Bft) SO 135 0 min 5,2 C 7,4 C 3,2 km/h (1 Bft)
15.12.2020 23:20 7,2 C 6,6 C 6,4 C 7,5 C 7,5 C 0,3 C 87 % 92 % 1018,6 hPa 0,0 l/m 0,3 km/h (0 Bft) S-SO 157 0 min 5,2 C 7,5 C 0,0 km/h (0 Bft)
15.12.2020 23:25 7,2 C 6,6 C 6,4 C 7,5 C 7,5 C 0,3 C 87 % 93 % 1018,6 hPa 0,0 l/m 0,6 km/h (0 Bft) SO 135 0 min 5,2 C 7,5 C 5,5 km/h (1 Bft)
15.12.2020 23:30 7,3 C 6,6 C 6,3 C 7,5 C 7,5 C 0,2 C 87 % 93 % 1018,6 hPa 0,0 l/m 0,3 km/h (0 Bft) SO 135 0 min 5,3 C 7,5 C 0,0 km/h (0 Bft)
15.12.2020 23:35 7,3 C 6,7 C 6,3 C 7,5 C 7,5 C 0,2 C 87 % 93 % 1018,6 hPa 0,0 l/m 0,0 km/h (0 Bft) O-SO 112 0 min 5,3 C 7,5 C 0,0 km/h (0 Bft)
15.12.2020 23:40 7,2 C 6,7 C 6,3 C 7,6 C 7,6 C 0,4 C 87 % 93 % 1018,6 hPa 0,0 l/m 0,0 km/h (0 Bft) O-SO 112 0 min 5,2 C 7,6 C 0,0 km/h (0 Bft)
15.12.2020 23:45 7,2 C 6,6 C 6,3 C 7,6 C 7,6 C 0,4 C 87 % 93 % 1018,6 hPa 0,0 l/m 0,2 km/h (0 Bft) S-SO 157 0 min 5,2 C 7,6 C 0,0 km/h (0 Bft)
15.12.2020 23:50 7,3 C 6,6 C 6,5 C 7,7 C 7,7 C 0,4 C 86 % 92 % 1018,6 hPa 0,0 l/m 0,3 km/h (0 Bft) SO 135 0 min 5,1 C 7,7 C 3,2 km/h (1 Bft)
15.12.2020 23:55 7,4 C 6,6 C 6,7 C 7,9 C 7,9 C 0,5 C 87 % 92 % 1018,6 hPa 0,0 l/m 0,8 km/h (0 Bft) SO 135 0 min 5,4 C 7,9 C 2,4 km/h (1 Bft)
_ Min-Zeit 00:40 09:55 00:00 00:00 00:00 00:00 12:25 12:55 11:10 - 00:35 - - - 00:40 00:00 00:00
Minimum _ 0,5 C 5,5 C 0,2 C 0,6 C 0,3 C 0,0 C 73 % 76 % 1014,2 hPa - 0,0 km/h (0 Bft) - - - -1,3 C 0,3 C 0,0 km/h (0 Bft)
_ Max-Zeit 13:45 21:30 13:30 13:35 13:35 03:25 00:20 00:00 23:10 17:45 12:05 - - 00:00 23:55 13:35 12:25
Maximum _ 9,1 C 6,7 C 8,4 C 10,5 C 10,5 C 2,0 C 88 % 93 % 1018,6 hPa 0,7 l/m 3,5 km/h
S-SW (1 Bft)
- - 0 min 5,4 C 10,5 C 7,6 km/h
S-SW (2 Bft)
Durchschnitt _ 5,2 C 6,0 C 4,6 C 5,7 C 5,5 C 0,5 C 82 % 87 % 1015,8 hPa #0,7 l/m 0,5 km/h (0 Bft) O-NO - #0 min. 2,4 C 5,5 C 0,8 km/h (0 Bft)
2020 www.wetterstation-wechselburg.de